^^
Station Historical Data
Daily Summary for October 9, 2017 Units:  English    Metric   Both
« Previous Day
Next Day »
Daily Weekly Monthly Yearly Custom
  High: Low: Average:
Temperature: 74.6 °F 70.3 °F 72.6 °F
Dew Point: 73.4 °F 69.4 °F 71.2 °F
Humidity: 97% 89% 95%
Wind Speed: 8.0mph 0.0mph 3mph
Wind Gust: 26.0mph - -
Wind- - SSW
Pressure: 30.01 in 29.82 in -
Precipitation: 0.29 in    
Historical Graphs
 
 
Tabular Data for October 9, 2017
Time Temperature Dew Point Pressure Wind Wind Speed Wind Gust Humidity Rainfall Rate (Hourly) Conditions
00:00 74.3 °F 70.8 °F 30.00 in SSW 2.0 mph 6.0 mph 89% 0.00 in RA
00:15 74.3 °F 70.8 °F 30.00 in SSW 2.0 mph 7.0 mph 89% 0.00 in CLR
00:30 74.4 °F 70.9 °F 30.00 in SSW 1.0 mph 6.0 mph 89% 0.00 in CLR
00:45 74.3 °F 71.2 °F 30.01 in South 3.0 mph 8.0 mph 90% 0.00 in CLR
01:00 74.3 °F 71.2 °F 30.00 in Calm   4.0 mph 90% 0.00 in CLR
01:15 74.3 °F 71.5 °F 30.00 in SSE 1.0 mph 3.0 mph 91% 0.00 in -DZ
01:30 74.2 °F 71.4 °F 29.99 in Calm   2.0 mph 91% 0.00 in -DZ
01:45 74.1 °F 71.6 °F 29.99 in Calm   4.0 mph 92% 0.00 in -DZ
02:00 73.8 °F 71.3 °F 29.99 in Calm   2.0 mph 92% 0.00 in -DZ
02:15 73.6 °F 71.4 °F 30.00 in SSW 1.0 mph 2.0 mph 93% 0.00 in -DZ
02:30 73.4 °F 71.3 °F 29.99 in Calm   1.0 mph 93% 0.00 in -DZ
02:45 73.2 °F 71.4 °F 29.99 in Calm   1.0 mph 94% 0.00 in -DZ
03:00 72.9 °F 71.4 °F 29.99 in Calm   2.0 mph 95% 0.00 in -DZ
03:15 72.9 °F 71.4 °F 29.98 in Calm   3.0 mph 95% 0.00 in -DZ
03:30 72.7 °F 71.2 °F 29.98 in Calm   2.0 mph 95% 0.00 in -DZ
03:45 72.5 °F 71.3 °F 29.98 in SSW 2.0 mph 4.0 mph 96% 0.00 in -DZ
04:00 72.4 °F 71.2 °F 29.98 in Calm   3.0 mph 96% 0.00 in -DZ
04:15 72.3 °F 71.1 °F 29.98 in South 1.0 mph 4.0 mph 96% 0.00 in -RA
04:30 72.1 °F 70.9 °F 29.97 in Calm   4.0 mph 96% 0.01 in -RA
04:45 72.0 °F 70.8 °F 29.97 in Calm   4.0 mph 96% 0.00 in -RA
05:00 71.8 °F 70.6 °F 29.97 in WSW 1.0 mph 4.0 mph 96% 0.02 in -RA
05:15 71.5 °F 70.3 °F 29.97 in SW 1.0 mph 5.0 mph 96% 0.00 in -RA
05:30 71.1 °F 69.9 °F 29.97 in NNE 2.0 mph 5.0 mph 96% 0.00 in -RA
05:45 70.9 °F 70.0 °F 29.98 in SSW 2.0 mph 7.0 mph 97% 0.00 in -RA
06:00 70.7 °F 69.8 °F 29.98 in Calm   4.0 mph 97% 0.00 in -RA
06:15 70.7 °F 69.8 °F 29.98 in Calm   5.0 mph 97% 0.01 in -RA
06:30 70.6 °F 69.7 °F 29.96 in SW 1.0 mph 4.0 mph 97% 0.00 in -RA
06:45 70.5 °F 69.6 °F 29.95 in WSW 1.0 mph 5.0 mph 97% 0.00 in -RA
07:00 70.5 °F 69.6 °F 29.97 in South 3.0 mph 8.0 mph 97% 0.00 in -RA
07:15 70.5 °F 69.6 °F 29.97 in SSW 1.0 mph 8.0 mph 97% 0.00 in -RA
07:30 70.4 °F 69.5 °F 29.99 in South 3.0 mph 8.0 mph 97% 0.00 in -RA
07:45 70.4 °F 69.5 °F 29.99 in SSW 2.0 mph 10.0 mph 97% 0.00 in -RA
08:00 70.4 °F 69.5 °F 29.99 in SW 1.0 mph 5.0 mph 97% 0.00 in -RA
08:15 70.3 °F 69.4 °F 29.98 in SW 1.0 mph 4.0 mph 97% 0.00 in -RA
08:30 70.4 °F 69.5 °F 30.00 in SW 5.0 mph 10.0 mph 97% 0.01 in -RA
08:45 70.7 °F 69.8 °F 29.98 in SSE 2.0 mph 8.0 mph 97% 0.00 in -RA
09:00 70.9 °F 70.0 °F 29.99 in SW 1.0 mph 6.0 mph 97% 0.00 in -RA
09:15 71.1 °F 70.2 °F 29.98 in South 2.0 mph 10.0 mph 97% 0.00 in -RA
09:30 71.4 °F 70.2 °F 29.98 in SW 3.0 mph 7.0 mph 96% 0.00 in -RA
09:45 71.5 °F 70.3 °F 29.97 in SSE 1.0 mph 12.0 mph 96% 0.00 in -RA
10:00 71.5 °F 70.3 °F 29.97 in SSW 3.0 mph 9.0 mph 96% 0.00 in -RA
10:15 71.5 °F 70.3 °F 29.97 in SSW 6.0 mph 10.0 mph 96% 0.00 in
10:30 71.6 °F 70.4 °F 29.95 in SW 5.0 mph 12.0 mph 96% 0.00 in
10:45 71.8 °F 70.6 °F 29.94 in South 3.0 mph 12.0 mph 96% 0.00 in
11:00 71.8 °F 70.6 °F 29.93 in SSW 6.0 mph 14.0 mph 96% 0.00 in
11:15 72.1 °F 70.6 °F 29.93 in SSW 6.0 mph 17.0 mph 95% 0.01 in -RA
11:30 72.1 °F 70.6 °F 29.93 in SSW 7.0 mph 18.0 mph 95% 0.01 in -RA
11:45 72.0 °F 70.5 °F 29.94 in SSW 8.0 mph 18.0 mph 95% 0.00 in -RA
12:00 72.2 °F 70.7 °F 29.92 in South 7.0 mph 18.0 mph 95% 0.00 in -RA
12:15 72.3 °F 70.8 °F 29.91 in SW 7.0 mph 15.0 mph 95% 0.00 in -RA
12:30 72.5 °F 71.0 °F 29.91 in SSW 5.0 mph 16.0 mph 95% 0.01 in -RA
12:45 72.5 °F 71.0 °F 29.89 in SW 6.0 mph 15.0 mph 95% 0.01 in -RA
13:00 72.4 °F 70.9 °F 29.89 in SSW 5.0 mph 17.0 mph 95% 0.02 in -RA
13:15 72.2 °F 70.7 °F 29.87 in SSW 5.0 mph 16.0 mph 95% 0.02 in -RA
13:30 72.1 °F 70.9 °F 29.85 in SSW 7.0 mph 17.0 mph 96% 0.04 in -RA
13:45 71.8 °F 70.6 °F 29.84 in SSW 8.0 mph 22.0 mph 96% 0.01 in -RA
14:00 71.6 °F 70.4 °F 29.84 in SSW 8.0 mph 22.0 mph 96% 0.01 in -RA
14:15 71.6 °F 70.4 °F 29.83 in SSW 6.0 mph 20.0 mph 96% 0.00 in -RA
14:30 71.4 °F 69.9 °F 29.83 in SSW 6.0 mph 26.0 mph 95% 0.00 in -RA
14:45 71.4 °F 69.9 °F 29.82 in SSW 3.0 mph 22.0 mph 95% 0.00 in -RA
15:00 71.5 °F 70.0 °F 29.82 in SW 7.0 mph 23.0 mph 95% 0.00 in -RA
15:15 71.6 °F 70.4 °F 29.82 in SSW 7.0 mph 17.0 mph 96% 0.00 in -RA
15:30 71.7 °F 70.5 °F 29.82 in SW 3.0 mph 22.0 mph 96% 0.01 in -RA
15:45 71.8 °F 70.6 °F 29.82 in SSW 7.0 mph 14.0 mph 96% 0.00 in -RA
16:00 72.1 °F 70.9 °F 29.82 in SSW 3.0 mph 14.0 mph 96% 0.00 in -RA
16:15 72.5 °F 71.3 °F 29.82 in SSW 8.0 mph 16.0 mph 96% 0.01 in -RA
16:30 72.7 °F 71.5 °F 29.82 in South 7.0 mph 14.0 mph 96% 0.00 in -RA
16:45 72.9 °F 71.7 °F 29.82 in South 5.0 mph 13.0 mph 96% 0.00 in -RA
17:00 73.1 °F 71.9 °F 29.82 in SSW 5.0 mph 12.0 mph 96% 0.00 in -RA
17:15 73.4 °F 72.2 °F 29.82 in SSW 1.0 mph 10.0 mph 96% 0.00 in OVC
17:30 73.4 °F 72.2 °F 29.82 in SSW 3.0 mph 12.0 mph 96% 0.02 in RA
17:45 73.5 °F 72.3 °F 29.83 in South 3.0 mph 16.0 mph 96% 0.01 in RA
18:00 73.6 °F 72.4 °F 29.83 in SW 3.0 mph 13.0 mph 96% 0.02 in RA
18:15 73.7 °F 72.8 °F 29.84 in SSW 3.0 mph 12.0 mph 97% 0.00 in -RA
18:30 73.9 °F 72.7 °F 29.84 in South 3.0 mph 12.0 mph 96% 0.00 in -RA
18:45 74.0 °F 72.8 °F 29.85 in SSW 2.0 mph 9.0 mph 96% 0.00 in -RA
19:00 74.0 °F 72.8 °F 29.85 in South 5.0 mph 12.0 mph 96% 0.00 in -RA
19:15 74.2 °F 73.0 °F 29.85 in SSW 5.0 mph 13.0 mph 96% 0.00 in -RA
19:30 74.3 °F 73.1 °F 29.86 in SSW 3.0 mph 11.0 mph 96% 0.00 in -RA
19:45 74.2 °F 73.0 °F 29.86 in SW 3.0 mph 10.0 mph 96% 0.00 in -RA
20:15 74.3 °F 73.1 °F 29.87 in SSW 3.0 mph 10.0 mph 96% 0.00 in -RA
20:30 74.4 °F 73.2 °F 29.87 in SW 5.0 mph 12.0 mph 96% 0.00 in -RA
20:45 74.4 °F 73.2 °F 29.87 in SSW 2.0 mph 9.0 mph 96% 0.00 in -RA
21:00 74.5 °F 73.3 °F 29.88 in SSW 3.0 mph 12.0 mph 96% 0.00 in -RA
21:15 74.5 °F 73.3 °F 29.88 in SSW 5.0 mph 12.0 mph 96% 0.00 in -RA
21:45 74.4 °F 73.2 °F 29.89 in SSW 2.0 mph 10.0 mph 96% 0.00 in -RA
22:00 74.5 °F 73.3 °F 29.89 in SSW 6.0 mph 9.0 mph 96% 0.00 in -RA
22:15 74.5 °F 73.3 °F 29.89 in SSW 2.0 mph 8.0 mph 96% 0.00 in BKN
22:30 74.5 °F 73.3 °F 29.90 in SSW 2.0 mph 8.0 mph 96% 0.00 in BKN
22:45 74.6 °F 73.4 °F 29.90 in SW 2.0 mph 8.0 mph 96% 0.00 in BKN
23:00 74.4 °F 73.2 °F 29.91 in Calm   5.0 mph 96% 0.00 in BKN
23:30 73.9 °F 72.7 °F 29.91 in South 1.0 mph 4.0 mph 96% 0.00 in BKN
23:45 73.4 °F 72.2 °F 29.92 in South 1.0 mph 4.0 mph 96% 0.00 in BKN
TarryTown NY Weather
Compliments of Weather Underground - 1.5 mb